Terminal Aerodrome Forecast
Issued by NWS

Home | Current Version | Previous Version | Text Only | Print | Product List | Glossary On
Versions: 1 2 3 4 5 6 7 8 9 10 11 12 13 14 15 16 17 18
000
FTUS43 KGRB 170200 AAA
TAFATW
TAF AMD
KATW 170214Z 1702/1724 32013G20KT P6SM SCT010 OVC016
      TEMPO 1702/1704 5SM -SN BR BKN010
     FM170500 30012KT P6SM SCT018 OVC025
     FM171400 30013G19KT P6SM SCT020 BKN030
     FM171900 30010G14KT P6SM SCT030 BKN050=

USA.gov is the U.S. government's official web portal to all federal, state and local government web resources and services.